createdAt,value
2023-02-06T00:00:42.636Z,13.00
2023-02-06T00:03:09.639Z,12.00
2023-02-06T00:05:36.766Z,13.00
2023-02-06T00:08:03.888Z,12.00
2023-02-06T00:10:34.547Z,12.90
2023-02-06T00:13:04.923Z,12.20
2023-02-06T00:15:32.428Z,12.20
2023-02-06T00:17:59.413Z,12.40
2023-02-06T00:20:26.136Z,11.10
2023-02-06T00:22:53.345Z,12.40
2023-02-06T00:25:20.024Z,11.70
2023-02-06T00:27:46.695Z,12.10
2023-02-06T00:30:13.765Z,12.10
2023-02-06T00:32:41.701Z,11.90
2023-02-06T00:35:09.499Z,11.80
2023-02-06T00:37:36.434Z,11.30
2023-02-06T00:42:32.501Z,10.10
2023-02-06T00:44:59.964Z,10.80
2023-02-06T00:47:27.048Z,11.50
2023-02-06T00:49:54.821Z,11.60
2023-02-06T00:52:21.365Z,9.50
2023-02-06T00:54:48.433Z,12.00
2023-02-06T00:57:15.406Z,10.70
2023-02-06T00:59:42.353Z,10.30
2023-02-06T01:02:09.488Z,11.80
2023-02-06T01:04:36.167Z,11.30
2023-02-06T01:07:04.107Z,10.30
2023-02-06T01:09:31.068Z,10.90
2023-02-06T01:11:57.821Z,11.40
2023-02-06T01:14:26.025Z,11.20
2023-02-06T01:16:52.709Z,10.90
2023-02-06T01:19:19.871Z,10.80
2023-02-06T01:21:47.000Z,11.00
2023-02-06T01:24:13.642Z,11.60
2023-02-06T01:26:40.591Z,10.70
2023-02-06T01:29:07.454Z,9.10
2023-02-06T01:31:34.299Z,10.90
2023-02-06T01:34:02.849Z,11.40
2023-02-06T01:36:30.180Z,10.50
2023-02-06T01:38:57.066Z,10.80
2023-02-06T01:41:23.747Z,10.90
2023-02-06T01:44:16.352Z,10.20
2023-02-06T01:46:45.897Z,10.20
2023-02-06T01:49:25.292Z,10.70
2023-02-06T01:52:30.619Z,10.20
2023-02-06T01:54:59.230Z,10.50
2023-02-06T01:57:26.046Z,12.10
2023-02-06T01:59:57.929Z,10.10
2023-02-06T02:02:25.157Z,10.50
2023-02-06T02:04:53.770Z,11.10
2023-02-06T02:07:25.538Z,10.70
2023-02-06T02:09:52.446Z,11.00
2023-02-06T02:12:19.148Z,11.70
2023-02-06T02:14:46.549Z,11.40
2023-02-06T02:17:37.840Z,12.00
2023-02-06T02:20:42.221Z,11.30
2023-02-06T02:23:24.438Z,11.00
2023-02-06T02:26:24.034Z,11.20
2023-02-06T02:29:02.545Z,11.10
2023-02-06T02:31:53.458Z,11.00
2023-02-06T02:34:41.375Z,11.30
2023-02-06T02:37:16.012Z,10.20
2023-02-06T02:39:52.557Z,11.20
2023-02-06T02:42:23.574Z,11.80
2023-02-06T02:45:04.492Z,11.30
2023-02-06T02:47:33.464Z,10.80
2023-02-06T02:52:27.889Z,11.10
2023-02-06T02:54:54.549Z,11.10
2023-02-06T02:57:26.692Z,11.80
2023-02-06T02:59:53.771Z,13.50
2023-02-06T03:02:30.152Z,11.10
2023-02-06T03:05:00.302Z,11.90
2023-02-06T03:07:53.153Z,13.40
2023-02-06T03:10:49.285Z,12.50
2023-02-06T03:13:26.673Z,12.50
2023-02-06T03:16:46.383Z,12.30
2023-02-06T03:19:13.822Z,13.00
2023-02-06T03:21:41.965Z,13.90
2023-02-06T03:24:15.479Z,13.70
2023-02-06T03:26:42.755Z,13.20
2023-02-06T03:29:11.533Z,13.20
2023-02-06T03:31:51.756Z,12.20
2023-02-06T03:34:25.021Z,14.30
2023-02-06T03:36:51.789Z,12.30
2023-02-06T03:39:18.854Z,13.10
2023-02-06T03:41:46.648Z,13.10
2023-02-06T03:44:16.480Z,12.40
2023-02-06T03:46:44.708Z,14.30
2023-02-06T03:49:13.033Z,12.80
2023-02-06T03:51:51.507Z,12.90
2023-02-06T03:54:19.402Z,12.60
2023-02-06T03:56:53.813Z,13.00
2023-02-06T03:59:20.394Z,11.80
2023-02-06T04:01:49.721Z,11.90
2023-02-06T04:04:17.598Z,12.80
2023-02-06T04:06:44.576Z,11.70
2023-02-06T04:09:11.546Z,11.50
2023-02-06T04:11:38.434Z,12.80
2023-02-06T04:14:05.871Z,12.60
2023-02-06T04:16:34.385Z,13.00
2023-02-06T04:19:01.410Z,13.00
2023-02-06T04:21:28.667Z,11.50
2023-02-06T04:23:55.374Z,13.00
2023-02-06T04:26:23.231Z,11.50
2023-02-06T04:28:50.757Z,13.40
2023-02-06T04:31:17.658Z,11.60
2023-02-06T04:33:44.893Z,11.70
2023-02-06T04:36:11.672Z,11.70
2023-02-06T04:38:38.280Z,10.60
2023-02-06T04:41:05.582Z,12.30
2023-02-06T04:43:32.484Z,10.80
2023-02-06T04:46:00.475Z,11.00
2023-02-06T04:48:27.316Z,10.80
2023-02-06T04:50:55.336Z,10.10
2023-02-06T04:53:22.339Z,10.10
2023-02-06T04:55:50.820Z,9.30
2023-02-06T04:58:18.271Z,10.70
2023-02-06T05:00:45.854Z,10.80
2023-02-06T05:03:13.291Z,10.80
2023-02-06T05:05:40.433Z,10.10
2023-02-06T05:08:07.159Z,10.60
2023-02-06T05:10:33.860Z,10.90
2023-02-06T05:13:00.983Z,10.60
2023-02-06T05:15:27.727Z,10.70
2023-02-06T05:17:55.979Z,10.80
2023-02-06T05:20:22.724Z,10.60
2023-02-06T05:22:49.669Z,10.20
2023-02-06T05:25:16.794Z,9.60
2023-02-06T05:27:43.712Z,10.00
2023-02-06T05:30:11.251Z,9.80
2023-02-06T05:32:38.321Z,9.70
2023-02-06T05:35:05.690Z,10.60
2023-02-06T05:37:32.760Z,10.50
2023-02-06T05:40:00.110Z,9.90
2023-02-06T05:42:26.959Z,11.20
2023-02-06T05:44:53.776Z,10.00
2023-02-06T05:47:20.608Z,10.70
2023-02-06T05:49:47.706Z,10.60
2023-02-06T05:52:14.985Z,10.80
2023-02-06T05:54:41.773Z,10.90
2023-02-06T05:57:08.528Z,10.70
2023-02-06T05:59:35.472Z,10.70
2023-02-06T06:02:02.320Z,11.30
2023-02-06T06:04:29.334Z,10.70
2023-02-06T06:06:56.383Z,9.90
2023-02-06T06:09:23.225Z,9.50
2023-02-06T06:11:51.019Z,10.20
2023-02-06T06:14:17.765Z,9.90
2023-02-06T06:19:13.799Z,10.60
2023-02-06T06:21:40.381Z,10.30
2023-02-06T06:24:07.239Z,10.00
2023-02-06T06:26:34.334Z,10.30
2023-02-06T06:29:01.168Z,11.20
2023-02-06T06:31:27.825Z,10.40
2023-02-06T06:33:55.192Z,10.90
2023-02-06T06:36:22.112Z,10.90
2023-02-06T06:38:49.151Z,11.20
2023-02-06T06:41:15.883Z,11.80
2023-02-06T06:43:42.630Z,11.00
2023-02-06T06:46:09.318Z,11.70
2023-02-06T06:48:37.662Z,11.40
2023-02-06T06:51:05.309Z,10.50
2023-02-06T06:53:32.083Z,10.80
2023-02-06T06:56:05.753Z,10.70
2023-02-06T06:58:32.601Z,11.40
2023-02-06T07:00:59.354Z,11.40
2023-02-06T07:03:26.152Z,12.60
2023-02-06T07:05:53.332Z,13.10
2023-02-06T07:08:21.254Z,13.10
2023-02-06T07:10:48.211Z,12.90
2023-02-06T07:13:16.573Z,13.60
2023-02-06T07:15:43.524Z,12.80
2023-02-06T07:18:11.738Z,13.40
2023-02-06T07:20:38.789Z,12.30
2023-02-06T07:23:05.577Z,14.00
2023-02-06T07:25:32.234Z,14.10
2023-02-06T07:28:00.030Z,13.10
2023-02-06T07:30:27.352Z,12.90
2023-02-06T07:32:54.014Z,12.50
2023-02-06T07:35:20.717Z,12.50
2023-02-06T07:37:47.477Z,13.70
2023-02-06T07:40:14.450Z,13.60
2023-02-06T07:42:41.529Z,13.00
2023-02-06T07:45:15.058Z,12.50
2023-02-06T07:47:41.750Z,11.80
2023-02-06T07:50:10.446Z,10.80
2023-02-06T07:52:38.613Z,8.70
2023-02-06T07:55:05.904Z,9.30
2023-02-06T07:57:32.688Z,8.80
2023-02-06T07:59:59.248Z,9.40
2023-02-06T08:02:26.266Z,9.60
2023-02-06T08:04:52.905Z,9.80
2023-02-06T08:07:19.649Z,8.70
2023-02-06T08:09:46.389Z,9.10
2023-02-06T08:12:13.076Z,9.40
2023-02-06T08:14:39.973Z,8.00
2023-02-06T08:21:59.115Z,9.10
2023-02-06T08:24:50.801Z,9.60
2023-02-06T08:27:17.635Z,8.60
2023-02-06T08:29:44.520Z,9.50
2023-02-06T08:32:11.529Z,9.30
2023-02-06T08:34:38.989Z,8.80
2023-02-06T08:37:05.926Z,9.70
2023-02-06T08:39:32.871Z,9.40
2023-02-06T08:41:59.761Z,10.10
2023-02-06T08:44:26.466Z,9.50
2023-02-06T08:47:04.681Z,9.40
2023-02-06T08:49:35.909Z,9.10
2023-02-06T08:52:02.473Z,7.50
2023-02-06T08:54:29.619Z,9.20
2023-02-06T08:56:57.870Z,10.10
2023-02-06T08:59:24.612Z,9.40
2023-02-06T09:01:51.556Z,8.50
2023-02-06T09:04:18.956Z,8.40
2023-02-06T09:06:49.562Z,9.30
2023-02-06T09:09:16.490Z,9.60
2023-02-06T09:11:43.333Z,8.80
2023-02-06T09:14:13.744Z,8.90
2023-02-06T09:16:40.335Z,10.00
2023-02-06T09:19:07.105Z,9.30
2023-02-06T09:21:34.695Z,9.60
2023-02-06T09:24:04.334Z,11.20
2023-02-06T09:35:29.015Z,8.90
2023-02-06T09:37:56.296Z,10.40
2023-02-06T09:40:26.350Z,9.40
2023-02-06T09:42:55.914Z,9.50
2023-02-06T09:45:25.225Z,9.10
2023-02-06T09:47:55.339Z,9.40
2023-02-06T09:50:51.210Z,9.20
2023-02-06T09:53:25.644Z,9.20
2023-02-06T09:56:01.153Z,9.20
2023-02-06T09:58:53.038Z,8.40
2023-02-06T10:01:21.693Z,9.10
2023-02-06T10:06:26.412Z,8.40
2023-02-06T10:08:56.210Z,8.60
2023-02-06T10:11:34.818Z,8.20
2023-02-06T10:14:04.147Z,8.20
2023-02-06T10:16:45.401Z,8.00
2023-02-06T10:19:20.544Z,7.70
2023-02-06T10:21:54.754Z,8.00
2023-02-06T10:24:36.712Z,10.10
2023-02-06T10:27:05.622Z,10.10
2023-02-06T10:32:21.351Z,9.40
2023-02-06T10:34:58.448Z,8.60
2023-02-06T10:37:31.161Z,10.20
2023-02-06T10:40:26.842Z,11.30
2023-02-06T10:43:36.502Z,10.40
2023-02-06T10:46:12.431Z,10.90
2023-02-06T10:48:43.784Z,9.60
2023-02-06T10:51:16.800Z,11.30
2023-02-06T10:53:49.737Z,9.00
2023-02-06T10:56:23.970Z,9.80
2023-02-06T10:58:59.608Z,8.80
2023-02-06T11:01:29.094Z,8.70
2023-02-06T11:04:27.053Z,8.90
2023-02-06T11:06:57.402Z,8.50
2023-02-06T11:09:24.572Z,8.90
2023-02-06T11:11:53.953Z,10.60
2023-02-06T11:14:29.814Z,10.20
2023-02-06T11:16:58.427Z,9.10
2023-02-06T11:19:30.883Z,8.90
2023-02-06T11:22:03.973Z,9.50
2023-02-06T11:24:30.730Z,8.20
2023-02-06T11:26:59.640Z,8.30
2023-02-06T11:29:28.110Z,8.00
2023-02-06T11:32:04.797Z,7.40
2023-02-06T11:34:31.723Z,7.90
2023-02-06T11:37:34.518Z,7.50
2023-02-06T11:40:16.690Z,8.00
2023-02-06T11:42:47.157Z,8.40
2023-02-06T11:45:24.346Z,7.80
2023-02-06T11:47:51.118Z,9.60
2023-02-06T11:50:25.204Z,9.90
2023-02-06T11:53:07.452Z,11.30
2023-02-06T11:55:34.667Z,10.50
2023-02-06T11:58:04.886Z,9.80
2023-02-06T12:00:32.080Z,9.40
2023-02-06T12:02:58.792Z,10.30
2023-02-06T12:05:27.446Z,9.20
2023-02-06T12:10:48.020Z,8.00
2023-02-06T12:13:21.113Z,6.80
2023-02-06T12:15:50.768Z,7.50
2023-02-06T12:18:48.281Z,7.30
2023-02-06T12:21:19.458Z,8.40
2023-02-06T12:23:54.867Z,10.40
2023-02-06T12:26:23.551Z,10.00
2023-02-06T12:28:54.426Z,9.70
2023-02-06T12:31:25.198Z,8.90
2023-02-06T12:34:00.121Z,9.20
2023-02-06T12:36:33.479Z,9.10
2023-02-06T12:39:19.545Z,8.10
2023-02-06T12:41:58.877Z,8.40
2023-02-06T12:44:39.275Z,9.10
2023-02-06T12:47:12.439Z,8.80
2023-02-06T12:49:48.907Z,9.30
2023-02-06T12:52:24.849Z,7.50
2023-02-06T12:55:01.574Z,8.10
2023-02-06T12:57:28.669Z,8.00
2023-02-06T13:00:04.748Z,8.70
2023-02-06T13:03:09.310Z,10.00
2023-02-06T13:05:38.320Z,8.70
2023-02-06T13:08:50.201Z,8.50
2023-02-06T13:11:22.843Z,8.50
2023-02-06T13:13:49.592Z,7.10
2023-02-06T13:16:16.317Z,8.10
2023-02-06T13:18:49.932Z,8.20
2023-02-06T13:21:20.981Z,8.40
2023-02-06T13:24:04.905Z,9.30
2023-02-06T13:26:48.330Z,8.30
2023-02-06T13:29:25.107Z,9.60
2023-02-06T13:32:10.796Z,9.90
2023-02-06T13:34:46.169Z,10.90
2023-02-06T13:37:25.264Z,10.10
2023-02-06T13:40:20.399Z,9.60
2023-02-06T13:43:02.609Z,9.20
2023-02-06T13:45:35.396Z,9.70
2023-02-06T13:48:12.929Z,9.20
2023-02-06T13:51:13.231Z,7.50
2023-02-06T13:54:18.518Z,9.00
2023-02-06T13:56:57.650Z,9.20
2023-02-06T14:01:53.410Z,8.50
2023-02-06T14:04:27.703Z,9.10
2023-02-06T14:07:16.562Z,9.00
2023-02-06T14:10:33.118Z,9.10
2023-02-06T14:13:16.494Z,8.60
2023-02-06T14:15:46.025Z,8.90
2023-02-06T14:18:32.058Z,9.40
2023-02-06T14:21:08.632Z,9.60
2023-02-06T14:24:01.598Z,8.50
2023-02-06T14:26:35.378Z,8.80
2023-02-06T14:29:45.417Z,7.40
2023-02-06T14:32:43.659Z,9.90
2023-02-06T14:40:07.760Z,11.50
2023-02-06T14:42:36.764Z,14.40
2023-02-06T14:45:08.652Z,15.70
2023-02-06T14:47:41.823Z,13.90
2023-02-06T14:50:24.695Z,13.10
2023-02-06T14:52:57.105Z,12.10
2023-02-06T14:55:36.452Z,11.30
2023-02-06T14:58:17.414Z,11.30
2023-02-06T15:00:44.071Z,10.70
2023-02-06T15:03:15.995Z,8.20
2023-02-06T15:05:43.075Z,9.10
2023-02-06T15:08:19.466Z,9.50
2023-02-06T15:10:46.508Z,10.10
2023-02-06T15:13:23.556Z,10.00
2023-02-06T15:15:54.632Z,10.10
2023-02-06T15:18:21.466Z,9.00
2023-02-06T15:20:55.818Z,9.50
2023-02-06T15:23:41.586Z,9.30
2023-02-06T15:26:08.387Z,9.20
2023-02-06T15:28:35.553Z,9.40
2023-02-06T15:31:02.876Z,9.80
2023-02-06T15:33:31.688Z,9.70
2023-02-06T15:35:59.711Z,10.80
2023-02-06T15:38:28.033Z,10.90
2023-02-06T15:45:01.826Z,9.10
2023-02-06T15:47:28.943Z,9.40
2023-02-06T15:49:59.670Z,7.90
2023-02-06T15:52:38.780Z,8.70
2023-02-06T15:55:05.642Z,11.20
2023-02-06T15:57:37.708Z,10.40
2023-02-06T16:00:08.924Z,10.70
2023-02-06T16:02:39.218Z,11.60
2023-02-06T16:05:06.348Z,11.00
2023-02-06T16:07:35.393Z,10.40
2023-02-06T16:10:22.618Z,7.10
2023-02-06T16:12:49.766Z,10.90
2023-02-06T16:15:34.422Z,9.80
2023-02-06T16:18:18.926Z,9.00
2023-02-06T16:20:46.031Z,9.20
2023-02-06T16:23:23.522Z,9.50
2023-02-06T16:26:07.056Z,8.50
2023-02-06T16:28:59.059Z,8.90
2023-02-06T16:31:26.910Z,10.20
2023-02-06T16:33:53.870Z,10.00
2023-02-06T16:36:21.875Z,10.70
2023-02-06T16:39:03.243Z,10.90
2023-02-06T16:41:36.444Z,11.20
2023-02-06T16:53:49.316Z,8.00
2023-02-06T16:56:16.584Z,9.00
2023-02-06T16:58:44.698Z,8.60
2023-02-06T17:01:21.271Z,8.00
2023-02-06T17:03:48.791Z,8.40
2023-02-06T17:06:21.598Z,8.30
2023-02-06T17:08:53.034Z,8.00
2023-02-06T17:11:19.964Z,9.10
2023-02-06T17:13:46.693Z,7.90
2023-02-06T17:16:17.254Z,8.00
2023-02-06T17:18:44.878Z,8.70
2023-02-06T17:21:13.382Z,7.80
2023-02-06T17:23:40.535Z,7.90
2023-02-06T17:26:17.898Z,9.10
2023-02-06T17:28:44.850Z,8.70
2023-02-06T17:31:11.734Z,8.40
2023-02-06T17:33:38.837Z,7.40
2023-02-06T17:36:07.958Z,8.00
2023-02-06T17:41:02.981Z,12.60
2023-02-06T17:43:29.806Z,9.00
2023-02-06T17:45:56.977Z,8.20
2023-02-06T17:48:23.718Z,8.40
2023-02-06T17:50:50.449Z,7.60
2023-02-06T17:53:17.782Z,8.60
2023-02-06T17:55:45.099Z,8.10
2023-02-06T17:58:12.496Z,7.80
2023-02-06T18:00:39.643Z,8.20
2023-02-06T18:03:06.559Z,8.50
2023-02-06T18:05:35.068Z,8.70
2023-02-06T18:08:02.416Z,8.60
2023-02-06T18:10:29.269Z,7.70
2023-02-06T18:12:56.410Z,8.30
2023-02-06T18:15:26.421Z,7.90
2023-02-06T18:17:54.426Z,8.10
2023-02-06T18:20:21.551Z,8.30
2023-02-06T18:22:48.584Z,8.60
2023-02-06T18:25:15.566Z,8.30
2023-02-06T18:27:44.941Z,7.80
2023-02-06T18:30:13.422Z,7.70
2023-02-06T18:32:42.108Z,8.20
2023-02-06T18:35:09.203Z,7.90
2023-02-06T18:37:36.050Z,7.60
2023-02-06T18:40:03.690Z,8.60
2023-02-06T18:42:49.514Z,8.70
2023-02-06T18:45:20.379Z,8.70
2023-02-06T18:47:47.328Z,9.10
2023-02-06T18:50:14.371Z,8.90
2023-02-06T18:52:41.245Z,9.50
2023-02-06T18:55:08.836Z,9.50
2023-02-06T19:05:45.808Z,8.60
2023-02-06T19:08:12.498Z,9.00
2023-02-06T19:10:40.122Z,9.90
2023-02-06T19:13:07.368Z,8.40
2023-02-06T19:15:35.357Z,9.00
2023-02-06T19:18:04.059Z,8.60
2023-02-06T19:20:30.862Z,8.40
2023-02-06T19:22:57.979Z,8.20
2023-02-06T19:25:25.268Z,9.40
2023-02-06T19:27:52.019Z,8.10
2023-02-06T19:30:19.185Z,8.10
2023-02-06T19:32:48.222Z,8.40
2023-02-06T19:35:16.907Z,9.90
2023-02-06T19:37:43.907Z,8.30
2023-02-06T19:40:11.338Z,8.40
2023-02-06T19:42:39.098Z,8.10
2023-02-06T19:45:06.537Z,8.20
2023-02-06T19:47:34.524Z,7.70
2023-02-06T19:50:01.671Z,7.90
2023-02-06T19:52:28.925Z,8.20
2023-02-06T19:54:56.076Z,7.50
2023-02-06T19:57:22.790Z,7.70
2023-02-06T19:59:49.603Z,7.70
2023-02-06T20:02:16.292Z,7.40
2023-02-06T20:14:29.028Z,7.20
2023-02-06T20:16:55.937Z,7.70
2023-02-06T20:19:24.321Z,8.40
2023-02-06T20:21:53.706Z,7.90
2023-02-06T20:24:22.698Z,7.70
2023-02-06T20:26:52.247Z,8.00
2023-02-06T20:29:22.019Z,7.60
2023-02-06T20:31:49.608Z,7.70
2023-02-06T20:34:16.563Z,7.10
2023-02-06T20:36:43.881Z,6.70
2023-02-06T20:39:11.766Z,6.80
2023-02-06T20:41:38.921Z,6.50
2023-02-06T20:44:05.945Z,6.20
2023-02-06T20:46:34.355Z,5.70
2023-02-06T20:49:08.692Z,5.60
2023-02-06T20:51:35.437Z,5.90
2023-02-06T20:54:02.947Z,5.20
2023-02-06T20:56:30.647Z,4.90
2023-02-06T20:59:00.366Z,5.30
2023-02-06T21:01:28.258Z,5.00
2023-02-06T21:03:57.771Z,5.00
2023-02-06T21:06:24.819Z,5.10
2023-02-06T21:08:56.788Z,5.10
2023-02-06T21:11:23.828Z,6.20
2023-02-06T21:18:42.620Z,7.50
2023-02-06T21:25:16.328Z,7.00
2023-02-06T21:27:43.602Z,6.30
2023-02-06T21:30:11.580Z,6.70
2023-02-06T21:32:39.720Z,6.70
2023-02-06T21:35:08.328Z,7.20
2023-02-06T21:37:35.008Z,6.70
2023-02-06T21:40:04.103Z,6.90
2023-02-06T21:42:30.933Z,5.50
2023-02-06T21:44:58.464Z,6.50
2023-02-06T21:47:25.450Z,6.20
2023-02-06T21:49:52.146Z,6.40
2023-02-06T21:52:19.163Z,7.00
2023-02-06T21:54:47.978Z,7.70
2023-02-06T21:57:15.201Z,6.60
2023-02-06T21:59:42.333Z,8.10
2023-02-06T22:02:10.598Z,6.90
2023-02-06T22:04:38.011Z,7.80
2023-02-06T22:07:04.832Z,7.90
2023-02-06T22:09:31.445Z,7.90
2023-02-06T22:11:58.277Z,8.50
2023-02-06T22:14:25.546Z,8.20
2023-02-06T22:16:53.252Z,8.80
2023-02-06T22:19:19.964Z,7.60
2023-02-06T22:21:48.113Z,8.40
2023-02-06T22:29:06.537Z,8.20
2023-02-06T22:31:33.510Z,8.40
2023-02-06T22:34:00.486Z,9.30
2023-02-06T22:36:29.201Z,8.40
2023-02-06T22:38:58.874Z,8.40
2023-02-06T22:41:25.804Z,8.20
2023-02-06T22:43:52.374Z,8.20
2023-02-06T22:46:40.894Z,8.30
2023-02-06T22:49:08.754Z,8.40
2023-02-06T22:51:36.414Z,8.50
2023-02-06T22:54:03.677Z,9.00
2023-02-06T22:56:34.248Z,8.10
2023-02-06T22:59:20.447Z,8.30
2023-02-06T23:01:58.118Z,8.00
2023-02-06T23:04:29.218Z,8.10
2023-02-06T23:06:56.966Z,9.10
2023-02-06T23:09:28.905Z,9.10
2023-02-06T23:11:57.734Z,8.60
2023-02-06T23:14:24.664Z,8.40
2023-02-06T23:16:52.023Z,8.90
2023-02-06T23:19:19.057Z,8.50
2023-02-06T23:21:47.208Z,8.90
2023-02-06T23:24:14.627Z,9.00
2023-02-06T23:26:42.771Z,8.60
2023-02-06T23:29:09.684Z,8.80
2023-02-06T23:32:01.614Z,9.10
2023-02-06T23:34:29.426Z,8.90
2023-02-06T23:36:57.280Z,8.60
2023-02-06T23:39:24.092Z,8.40
2023-02-06T23:41:51.930Z,8.30
2023-02-06T23:44:18.934Z,8.90
2023-02-06T23:46:47.302Z,8.80
2023-02-06T23:49:14.761Z,8.50
2023-02-06T23:51:41.581Z,9.20
2023-02-06T23:54:08.583Z,8.40
2023-02-06T23:56:35.913Z,9.10
2023-02-06T23:59:04.087Z,8.50
